Terminal Aerodrome Forecast
Issued by NWS

Current Version | Previous Version | Graphics & Text | Print | Product List | Glossary On
Versions: 1 2 3 4 5 6 7 8 9 10 11 12 13 14 15
000
FTUS41 KPBZ 211100
TAFHLG
TAF
KHLG 211137Z 2112/2212 00000KT P6SM OVC025
     FM211300 00000KT P6SM BKN030
     FM211800 10002KT P6SM FEW050 SCT250=

USA.gov is the U.S. government's official web portal to all federal, state and local government web resources and services.